sensor_id;sensor_type;location;lat;lon;timestamp;pressure;altitude;pressure_sealevel;temperature;humidity
16451;BME280;12243;42.708;23.310;2023-08-06T00:01:00;93921.47;;;19.41;100.00
16451;BME280;12243;42.708;23.310;2023-08-06T00:03:27;93896.06;;;19.46;100.00
16451;BME280;12243;42.708;23.310;2023-08-06T00:05:54;93889.75;;;19.47;100.00
16451;BME280;12243;42.708;23.310;2023-08-06T00:08:21;93938.91;;;19.42;100.00
16451;BME280;12243;42.708;23.310;2023-08-06T00:10:48;93954.56;;;19.43;100.00
16451;BME280;12243;42.708;23.310;2023-08-06T00:13:15;93943.97;;;19.50;100.00
16451;BME280;12243;42.708;23.310;2023-08-06T00:15:41;93951.66;;;19.58;100.00
16451;BME280;12243;42.708;23.310;2023-08-06T00:18:10;93940.91;;;19.60;100.00
16451;BME280;12243;42.708;23.310;2023-08-06T00:20:38;93929.72;;;19.64;100.00
16451;BME280;12243;42.708;23.310;2023-08-06T00:23:05;93914.25;;;19.68;100.00
16451;BME280;12243;42.708;23.310;2023-08-06T00:25:32;93919.41;;;19.49;100.00
16451;BME280;12243;42.708;23.310;2023-08-06T00:27:59;93929.19;;;19.42;100.00
16451;BME280;12243;42.708;23.310;2023-08-06T00:30:26;93945.84;;;19.43;100.00
16451;BME280;12243;42.708;23.310;2023-08-06T00:32:53;93935.25;;;19.49;100.00
16451;BME280;12243;42.708;23.310;2023-08-06T00:35:22;93921.03;;;19.44;100.00
16451;BME280;12243;42.708;23.310;2023-08-06T00:37:49;93904.38;;;19.43;100.00
16451;BME280;12243;42.708;23.310;2023-08-06T00:40:16;93902.66;;;19.62;100.00
16451;BME280;12243;42.708;23.310;2023-08-06T00:42:46;93902.69;;;19.56;100.00
16451;BME280;12243;42.708;23.310;2023-08-06T00:45:13;93899.06;;;19.57;100.00
16451;BME280;12243;42.708;23.310;2023-08-06T00:47:40;93901.53;;;19.45;100.00
16451;BME280;12243;42.708;23.310;2023-08-06T00:50:08;93908.88;;;19.43;100.00
16451;BME280;12243;42.708;23.310;2023-08-06T00:52:37;93908.44;;;19.52;100.00
16451;BME280;12243;42.708;23.310;2023-08-06T00:55:05;93892.97;;;19.56;100.00
16451;BME280;12243;42.708;23.310;2023-08-06T00:57:32;93890.91;;;19.65;100.00
16451;BME280;12243;42.708;23.310;2023-08-06T00:59:59;93888.44;;;19.70;100.00
16451;BME280;12243;42.708;23.310;2023-08-06T01:02:26;93884.38;;;19.74;100.00
16451;BME280;12243;42.708;23.310;2023-08-06T01:04:53;93884.38;;;19.74;100.00
16451;BME280;12243;42.708;23.310;2023-08-06T01:07:32;93876.22;;;19.75;100.00
16451;BME280;12243;42.708;23.310;2023-08-06T01:10:26;93850.59;;;19.76;100.00
16451;BME280;12243;42.708;23.310;2023-08-06T01:13:04;93839.59;;;19.79;100.00
16451;BME280;12243;42.708;23.310;2023-08-06T01:15:39;93856.50;;;19.78;100.00
16451;BME280;12243;42.708;23.310;2023-08-06T01:18:08;93868.28;;;19.75;100.00
16451;BME280;12243;42.708;23.310;2023-08-06T01:20:36;93865.84;;;19.81;100.00
16451;BME280;12243;42.708;23.310;2023-08-06T01:23:03;93865.00;;;19.80;100.00
16451;BME280;12243;42.708;23.310;2023-08-06T01:25:34;93864.03;;;19.74;100.00
16451;BME280;12243;42.708;23.310;2023-08-06T01:28:06;93856.16;;;19.68;100.00
16451;BME280;12243;42.708;23.310;2023-08-06T01:30:40;93849.41;;;19.72;100.00
16451;BME280;12243;42.708;23.310;2023-08-06T01:33:10;93849.81;;;19.69;100.00
16451;BME280;12243;42.708;23.310;2023-08-06T01:35:42;93847.00;;;19.70;100.00
16451;BME280;12243;42.708;23.310;2023-08-06T01:38:09;93837.38;;;19.76;100.00
16451;BME280;12243;42.708;23.310;2023-08-06T01:40:36;93844.13;;;19.72;100.00
16451;BME280;12243;42.708;23.310;2023-08-06T01:43:03;93845.03;;;19.52;100.00
16451;BME280;12243;42.708;23.310;2023-08-06T01:45:30;93843.66;;;19.43;100.00
16451;BME280;12243;42.708;23.310;2023-08-06T01:47:57;93838.38;;;19.43;100.00
16451;BME280;12243;42.708;23.310;2023-08-06T01:50:24;93831.69;;;19.41;100.00
16451;BME280;12243;42.708;23.310;2023-08-06T01:52:52;93840.25;;;19.36;100.00
16451;BME280;12243;42.708;23.310;2023-08-06T01:55:19;93853.84;;;19.40;100.00
16451;BME280;12243;42.708;23.310;2023-08-06T01:57:46;93848.16;;;19.36;100.00
16451;BME280;12243;42.708;23.310;2023-08-06T02:00:13;93840.41;;;19.41;100.00
16451;BME280;12243;42.708;23.310;2023-08-06T02:02:40;93833.53;;;19.34;100.00
16451;BME280;12243;42.708;23.310;2023-08-06T02:05:07;93832.47;;;19.41;100.00
16451;BME280;12243;42.708;23.310;2023-08-06T02:07:34;93815.38;;;19.50;100.00
16451;BME280;12243;42.708;23.310;2023-08-06T02:10:04;93819.06;;;19.49;100.00
16451;BME280;12243;42.708;23.310;2023-08-06T02:12:31;93816.41;;;19.49;100.00
16451;BME280;12243;42.708;23.310;2023-08-06T02:14:58;93824.09;;;19.51;100.00
16451;BME280;12243;42.708;23.310;2023-08-06T02:17:25;93818.19;;;19.56;100.00
16451;BME280;12243;42.708;23.310;2023-08-06T02:19:52;93829.53;;;19.63;100.00
16451;BME280;12243;42.708;23.310;2023-08-06T02:22:18;93838.47;;;19.62;100.00
16451;BME280;12243;42.708;23.310;2023-08-06T02:24:45;93843.97;;;19.67;100.00
16451;BME280;12243;42.708;23.310;2023-08-06T02:27:16;93857.19;;;19.60;100.00
16451;BME280;12243;42.708;23.310;2023-08-06T02:29:43;93861.31;;;19.49;100.00
16451;BME280;12243;42.708;23.310;2023-08-06T02:32:11;93840.44;;;19.35;100.00
16451;BME280;12243;42.708;23.310;2023-08-06T02:34:38;93838.53;;;19.48;100.00
16451;BME280;12243;42.708;23.310;2023-08-06T02:37:05;93827.88;;;19.30;100.00
16451;BME280;12243;42.708;23.310;2023-08-06T02:39:32;93833.22;;;19.17;100.00
16451;BME280;12243;42.708;23.310;2023-08-06T02:42:01;93863.06;;;19.17;100.00
16451;BME280;12243;42.708;23.310;2023-08-06T02:44:32;93881.06;;;19.34;100.00
16451;BME280;12243;42.708;23.310;2023-08-06T02:46:59;93884.88;;;19.44;100.00
16451;BME280;12243;42.708;23.310;2023-08-06T02:49:26;93882.66;;;19.41;100.00
16451;BME280;12243;42.708;23.310;2023-08-06T02:51:53;93862.88;;;19.57;100.00
16451;BME280;12243;42.708;23.310;2023-08-06T02:54:20;93847.88;;;19.51;100.00
16451;BME280;12243;42.708;23.310;2023-08-06T02:56:46;93847.03;;;19.57;100.00
16451;BME280;12243;42.708;23.310;2023-08-06T02:59:26;93812.13;;;19.48;100.00
16451;BME280;12243;42.708;23.310;2023-08-06T03:02:05;93810.97;;;19.38;100.00
16451;BME280;12243;42.708;23.310;2023-08-06T03:04:45;93807.75;;;19.36;100.00
16451;BME280;12243;42.708;23.310;2023-08-06T03:07:12;93823.97;;;19.39;100.00
16451;BME280;12243;42.708;23.310;2023-08-06T03:09:49;93812.81;;;19.37;100.00
16451;BME280;12243;42.708;23.310;2023-08-06T03:12:15;93771.91;;;19.53;100.00
16451;BME280;12243;42.708;23.310;2023-08-06T03:14:42;93767.66;;;19.45;100.00
16451;BME280;12243;42.708;23.310;2023-08-06T03:17:11;93811.78;;;19.38;100.00
16451;BME280;12243;42.708;23.310;2023-08-06T03:19:37;93836.00;;;19.35;100.00
16451;BME280;12243;42.708;23.310;2023-08-06T03:22:05;93785.56;;;19.43;100.00
16451;BME280;12243;42.708;23.310;2023-08-06T03:24:34;93762.22;;;19.40;100.00
16451;BME280;12243;42.708;23.310;2023-08-06T03:27:02;93773.59;;;19.41;100.00
16451;BME280;12243;42.708;23.310;2023-08-06T03:29:29;93792.03;;;19.47;100.00
16451;BME280;12243;42.708;23.310;2023-08-06T03:32:00;93802.81;;;19.46;100.00
16451;BME280;12243;42.708;23.310;2023-08-06T03:34:29;93817.81;;;19.45;100.00
16451;BME280;12243;42.708;23.310;2023-08-06T03:36:56;93842.13;;;19.61;100.00
16451;BME280;12243;42.708;23.310;2023-08-06T03:39:23;93863.03;;;19.62;100.00
16451;BME280;12243;42.708;23.310;2023-08-06T03:41:50;93861.66;;;19.60;100.00
16451;BME280;12243;42.708;23.310;2023-08-06T03:44:17;93848.88;;;19.57;100.00
16451;BME280;12243;42.708;23.310;2023-08-06T03:46:46;93841.53;;;19.59;100.00
16451;BME280;12243;42.708;23.310;2023-08-06T03:49:13;93860.41;;;19.62;100.00
16451;BME280;12243;42.708;23.310;2023-08-06T03:51:42;93844.53;;;19.69;100.00
16451;BME280;12243;42.708;23.310;2023-08-06T03:54:09;93847.38;;;19.74;100.00
16451;BME280;12243;42.708;23.310;2023-08-06T03:56:36;93856.69;;;19.77;100.00
16451;BME280;12243;42.708;23.310;2023-08-06T03:59:04;93855.00;;;19.89;100.00
16451;BME280;12243;42.708;23.310;2023-08-06T04:01:31;93856.41;;;19.91;100.00
16451;BME280;12243;42.708;23.310;2023-08-06T04:03:58;93854.75;;;19.90;100.00
16451;BME280;12243;42.708;23.310;2023-08-06T04:06:25;93858.63;;;19.94;100.00
16451;BME280;12243;42.708;23.310;2023-08-06T04:08:53;93859.75;;;20.05;100.00
16451;BME280;12243;42.708;23.310;2023-08-06T04:11:20;93859.97;;;20.04;100.00
16451;BME280;12243;42.708;23.310;2023-08-06T04:13:49;93870.91;;;20.07;100.00
16451;BME280;12243;42.708;23.310;2023-08-06T04:16:16;93872.00;;;19.99;100.00
16451;BME280;12243;42.708;23.310;2023-08-06T04:18:43;93876.09;;;19.95;100.00
16451;BME280;12243;42.708;23.310;2023-08-06T04:21:12;93873.59;;;20.01;100.00
16451;BME280;12243;42.708;23.310;2023-08-06T04:23:39;93866.44;;;20.08;100.00
16451;BME280;12243;42.708;23.310;2023-08-06T04:26:09;93864.72;;;20.20;100.00
16451;BME280;12243;42.708;23.310;2023-08-06T04:28:37;93850.81;;;20.31;100.00
16451;BME280;12243;42.708;23.310;2023-08-06T04:31:04;93851.56;;;20.38;100.00
16451;BME280;12243;42.708;23.310;2023-08-06T04:33:33;93843.66;;;20.32;100.00
16451;BME280;12243;42.708;23.310;2023-08-06T04:36:05;93849.38;;;20.29;100.00
16451;BME280;12243;42.708;23.310;2023-08-06T04:38:33;93844.16;;;20.22;100.00
16451;BME280;12243;42.708;23.310;2023-08-06T04:41:01;93830.78;;;20.17;100.00
16451;BME280;12243;42.708;23.310;2023-08-06T04:43:30;93833.00;;;20.20;100.00
16451;BME280;12243;42.708;23.310;2023-08-06T04:45:57;93821.44;;;20.14;100.00
16451;BME280;12243;42.708;23.310;2023-08-06T04:48:24;93814.06;;;20.23;100.00
16451;BME280;12243;42.708;23.310;2023-08-06T04:50:50;93808.78;;;20.23;100.00
16451;BME280;12243;42.708;23.310;2023-08-06T04:53:17;93809.16;;;20.27;100.00
16451;BME280;12243;42.708;23.310;2023-08-06T04:55:44;93799.31;;;20.34;100.00
16451;BME280;12243;42.708;23.310;2023-08-06T04:58:12;93804.63;;;20.34;100.00
16451;BME280;12243;42.708;23.310;2023-08-06T05:00:40;93793.38;;;20.38;100.00
16451;BME280;12243;42.708;23.310;2023-08-06T05:03:07;93783.59;;;20.39;100.00
16451;BME280;12243;42.708;23.310;2023-08-06T05:05:34;93786.94;;;20.53;100.00
16451;BME280;12243;42.708;23.310;2023-08-06T05:08:01;93786.66;;;20.79;100.00
16451;BME280;12243;42.708;23.310;2023-08-06T05:10:28;93789.16;;;20.92;100.00
16451;BME280;12243;42.708;23.310;2023-08-06T05:12:55;93796.31;;;21.22;100.00
16451;BME280;12243;42.708;23.310;2023-08-06T05:15:22;93796.47;;;21.27;100.00
16451;BME280;12243;42.708;23.310;2023-08-06T05:17:52;93807.00;;;21.64;100.00
16451;BME280;12243;42.708;23.310;2023-08-06T05:20:20;93801.06;;;21.80;100.00
16451;BME280;12243;42.708;23.310;2023-08-06T05:22:47;93801.41;;;21.96;100.00
16451;BME280;12243;42.708;23.310;2023-08-06T05:25:14;93811.38;;;21.58;100.00
16451;BME280;12243;42.708;23.310;2023-08-06T05:27:41;93811.47;;;21.52;100.00
16451;BME280;12243;42.708;23.310;2023-08-06T05:30:09;93811.91;;;21.91;100.00
16451;BME280;12243;42.708;23.310;2023-08-06T05:32:36;93804.88;;;21.84;100.00
16451;BME280;12243;42.708;23.310;2023-08-06T05:35:05;93805.81;;;22.02;100.00
16451;BME280;12243;42.708;23.310;2023-08-06T05:37:32;93808.53;;;22.37;100.00
16451;BME280;12243;42.708;23.310;2023-08-06T05:39:59;93801.13;;;22.63;100.00
16451;BME280;12243;42.708;23.310;2023-08-06T05:42:27;93793.16;;;22.98;100.00
16451;BME280;12243;42.708;23.310;2023-08-06T05:44:53;93791.38;;;23.44;100.00
16451;BME280;12243;42.708;23.310;2023-08-06T05:47:20;93782.09;;;23.58;98.72
16451;BME280;12243;42.708;23.310;2023-08-06T05:49:47;93790.41;;;23.50;96.87
16451;BME280;12243;42.708;23.310;2023-08-06T05:52:16;93782.56;;;23.55;95.94
16451;BME280;12243;42.708;23.310;2023-08-06T05:54:42;93805.81;;;23.76;96.17
16451;BME280;12243;42.708;23.310;2023-08-06T05:57:09;93808.00;;;23.80;94.19
16451;BME280;12243;42.708;23.310;2023-08-06T05:59:36;93810.53;;;24.54;91.58
16451;BME280;12243;42.708;23.310;2023-08-06T06:02:03;93810.22;;;24.67;88.16
16451;BME280;12243;42.708;23.310;2023-08-06T06:04:31;93803.31;;;24.49;86.35
16451;BME280;12243;42.708;23.310;2023-08-06T06:06:58;93810.38;;;24.43;87.79
16451;BME280;12243;42.708;23.310;2023-08-06T06:09:26;93816.25;;;24.29;86.48
16451;BME280;12243;42.708;23.310;2023-08-06T06:11:53;93825.19;;;24.06;87.54
16451;BME280;12243;42.708;23.310;2023-08-06T06:14:20;93825.03;;;24.12;88.21
16451;BME280;12243;42.708;23.310;2023-08-06T06:16:47;93824.41;;;24.39;87.45
16451;BME280;12243;42.708;23.310;2023-08-06T06:19:14;93837.25;;;24.59;86.42
16451;BME280;12243;42.708;23.310;2023-08-06T06:21:41;93833.91;;;24.68;85.90
16451;BME280;12243;42.708;23.310;2023-08-06T06:24:08;93850.38;;;24.32;86.81
16451;BME280;12243;42.708;23.310;2023-08-06T06:26:36;93852.81;;;24.50;85.57
16451;BME280;12243;42.708;23.310;2023-08-06T06:29:03;93859.94;;;24.16;87.25
16451;BME280;12243;42.708;23.310;2023-08-06T06:31:30;93859.94;;;23.99;87.24
16451;BME280;12243;42.708;23.310;2023-08-06T06:33:56;93856.59;;;23.63;87.63
16451;BME280;12243;42.708;23.310;2023-08-06T06:36:24;93862.34;;;23.32;89.46
16451;BME280;12243;42.708;23.310;2023-08-06T06:38:51;93876.28;;;23.91;85.63
16451;BME280;12243;42.708;23.310;2023-08-06T06:41:17;93880.47;;;23.87;85.02
16451;BME280;12243;42.708;23.310;2023-08-06T06:43:46;93885.69;;;23.82;84.49
16451;BME280;12243;42.708;23.310;2023-08-06T06:46:12;93888.19;;;23.48;85.17
16451;BME280;12243;42.708;23.310;2023-08-06T06:48:39;93886.97;;;23.27;86.18
16451;BME280;12243;42.708;23.310;2023-08-06T06:51:06;93889.22;;;22.95;89.26
16451;BME280;12243;42.708;23.310;2023-08-06T06:53:33;93899.59;;;22.85;88.15
16451;BME280;12243;42.708;23.310;2023-08-06T06:56:02;93894.16;;;23.26;85.97
16451;BME280;12243;42.708;23.310;2023-08-06T06:58:29;93892.75;;;23.24;86.62
16451;BME280;12243;42.708;23.310;2023-08-06T07:00:58;93907.38;;;23.50;85.13
16451;BME280;12243;42.708;23.310;2023-08-06T07:03:25;93908.59;;;23.83;83.78
16451;BME280;12243;42.708;23.310;2023-08-06T07:05:51;93910.53;;;24.33;81.43
16451;BME280;12243;42.708;23.310;2023-08-06T07:08:18;93907.56;;;24.00;81.85
16451;BME280;12243;42.708;23.310;2023-08-06T07:10:45;93914.66;;;23.95;82.35
16451;BME280;12243;42.708;23.310;2023-08-06T07:13:12;93912.88;;;23.60;82.86
16451;BME280;12243;42.708;23.310;2023-08-06T07:15:39;93921.88;;;23.83;82.47
16451;BME280;12243;42.708;23.310;2023-08-06T07:18:08;93915.06;;;24.32;79.77
16451;BME280;12243;42.708;23.310;2023-08-06T07:20:35;93914.69;;;24.12;80.28
16451;BME280;12243;42.708;23.310;2023-08-06T07:23:02;93913.97;;;24.45;80.67
16451;BME280;12243;42.708;23.310;2023-08-06T07:25:29;93916.13;;;24.82;76.67
16451;BME280;12243;42.708;23.310;2023-08-06T07:27:55;93917.03;;;25.04;74.01
16451;BME280;12243;42.708;23.310;2023-08-06T07:30:23;93920.34;;;25.50;73.54
16451;BME280;12243;42.708;23.310;2023-08-06T07:32:50;93920.56;;;25.87;73.77
16451;BME280;12243;42.708;23.310;2023-08-06T07:35:18;93916.13;;;25.98;71.72
16451;BME280;12243;42.708;23.310;2023-08-06T07:37:45;93924.38;;;25.97;71.15
16451;BME280;12243;42.708;23.310;2023-08-06T07:40:12;93914.59;;;25.19;71.13
16451;BME280;12243;42.708;23.310;2023-08-06T07:42:39;93910.25;;;24.97;72.81
16451;BME280;12243;42.708;23.310;2023-08-06T07:45:08;93912.34;;;25.11;72.57
16451;BME280;12243;42.708;23.310;2023-08-06T07:47:35;93915.75;;;24.90;74.25
16451;BME280;12243;42.708;23.310;2023-08-06T07:50:02;93919.78;;;24.42;76.33
16451;BME280;12243;42.708;23.310;2023-08-06T07:52:30;93919.38;;;24.21;77.79
16451;BME280;12243;42.708;23.310;2023-08-06T07:54:57;93910.56;;;24.04;78.94
16451;BME280;12243;42.708;23.310;2023-08-06T07:57:24;93900.47;;;23.89;80.31
16451;BME280;12243;42.708;23.310;2023-08-06T07:59:51;93905.63;;;23.67;81.48
16451;BME280;12243;42.708;23.310;2023-08-06T08:02:19;93902.47;;;23.70;80.77
16451;BME280;12243;42.708;23.310;2023-08-06T08:04:46;93907.72;;;23.94;80.33
16451;BME280;12243;42.708;23.310;2023-08-06T08:07:14;93893.38;;;23.95;79.34
16451;BME280;12243;42.708;23.310;2023-08-06T08:09:42;93900.97;;;24.03;78.60
16451;BME280;12243;42.708;23.310;2023-08-06T08:12:09;93898.19;;;24.27;77.57
16451;BME280;12243;42.708;23.310;2023-08-06T08:14:36;93896.16;;;24.34;76.26
16451;BME280;12243;42.708;23.310;2023-08-06T08:17:03;93906.81;;;24.17;75.39
16451;BME280;12243;42.708;23.310;2023-08-06T08:19:31;93894.34;;;24.51;75.26
16451;BME280;12243;42.708;23.310;2023-08-06T08:21:58;93895.09;;;24.80;73.11
16451;BME280;12243;42.708;23.310;2023-08-06T08:24:25;93896.22;;;24.84;73.06
16451;BME280;12243;42.708;23.310;2023-08-06T08:26:54;93902.81;;;25.15;73.05
16451;BME280;12243;42.708;23.310;2023-08-06T08:29:20;93898.88;;;25.62;72.66
16451;BME280;12243;42.708;23.310;2023-08-06T08:31:48;93900.97;;;26.04;68.82
16451;BME280;12243;42.708;23.310;2023-08-06T08:34:16;93905.00;;;25.62;69.34
16451;BME280;12243;42.708;23.310;2023-08-06T08:36:43;93901.63;;;25.89;69.45
16451;BME280;12243;42.708;23.310;2023-08-06T08:39:12;93891.16;;;26.09;68.29
16451;BME280;12243;42.708;23.310;2023-08-06T08:41:39;93896.53;;;26.14;66.75
16451;BME280;12243;42.708;23.310;2023-08-06T08:44:09;93897.19;;;26.27;67.02
16451;BME280;12243;42.708;23.310;2023-08-06T08:46:38;93890.56;;;26.29;64.96
16451;BME280;12243;42.708;23.310;2023-08-06T08:49:08;93896.38;;;25.99;66.64
16451;BME280;12243;42.708;23.310;2023-08-06T08:51:35;93897.63;;;25.26;69.29
16451;BME280;12243;42.708;23.310;2023-08-06T08:54:03;93888.03;;;25.47;70.28
16451;BME280;12243;42.708;23.310;2023-08-06T08:56:31;93886.44;;;25.46;69.24
16451;BME280;12243;42.708;23.310;2023-08-06T08:58:58;93886.94;;;25.70;68.78
16451;BME280;12243;42.708;23.310;2023-08-06T09:01:27;93879.38;;;26.05;67.53
16451;BME280;12243;42.708;23.310;2023-08-06T09:03:56;93879.78;;;26.19;67.37
16451;BME280;12243;42.708;23.310;2023-08-06T09:06:23;93877.31;;;26.45;66.55
16451;BME280;12243;42.708;23.310;2023-08-06T09:08:59;93880.41;;;26.58;66.07
16451;BME280;12243;42.708;23.310;2023-08-06T09:11:29;93875.06;;;26.58;65.04
16451;BME280;12243;42.708;23.310;2023-08-06T09:14:06;93873.06;;;26.76;64.42
16451;BME280;12243;42.708;23.310;2023-08-06T09:16:35;93861.13;;;26.51;65.82
16451;BME280;12243;42.708;23.310;2023-08-06T09:19:07;93868.50;;;26.76;64.82
16451;BME280;12243;42.708;23.310;2023-08-06T09:21:37;93870.38;;;27.13;63.26
16451;BME280;12243;42.708;23.310;2023-08-06T09:24:07;93857.03;;;26.81;61.97
16451;BME280;12243;42.708;23.310;2023-08-06T09:26:34;93856.59;;;26.89;61.94
16451;BME280;12243;42.708;23.310;2023-08-06T09:29:01;93855.53;;;26.95;61.87
16451;BME280;12243;42.708;23.310;2023-08-06T09:31:32;93856.78;;;27.20;61.41
16451;BME280;12243;42.708;23.310;2023-08-06T09:34:01;93842.22;;;27.53;60.91
16451;BME280;12243;42.708;23.310;2023-08-06T09:36:28;93848.66;;;27.62;59.56
16451;BME280;12243;42.708;23.310;2023-08-06T09:38:55;93850.81;;;27.70;56.98
16451;BME280;12243;42.708;23.310;2023-08-06T09:41:31;93824.44;;;27.94;56.69
16451;BME280;12243;42.708;23.310;2023-08-06T09:43:58;93844.09;;;27.58;56.42
16451;BME280;12243;42.708;23.310;2023-08-06T09:46:25;93839.50;;;27.43;57.97
16451;BME280;12243;42.708;23.310;2023-08-06T09:48:55;93839.25;;;27.44;57.36
16451;BME280;12243;42.708;23.310;2023-08-06T09:51:23;93841.69;;;27.61;56.23
16451;BME280;12243;42.708;23.310;2023-08-06T09:53:50;93844.59;;;27.49;56.75
16451;BME280;12243;42.708;23.310;2023-08-06T09:56:18;93844.91;;;27.58;57.45
16451;BME280;12243;42.708;23.310;2023-08-06T09:58:47;93839.81;;;27.57;54.69
16451;BME280;12243;42.708;23.310;2023-08-06T10:01:16;93840.41;;;27.74;55.71
16451;BME280;12243;42.708;23.310;2023-08-06T10:03:44;93840.38;;;27.59;56.17
16451;BME280;12243;42.708;23.310;2023-08-06T10:06:13;93852.22;;;27.78;55.25
16451;BME280;12243;42.708;23.310;2023-08-06T10:08:41;93839.25;;;27.49;54.57
16451;BME280;12243;42.708;23.310;2023-08-06T10:11:08;93846.06;;;27.15;54.73
16451;BME280;12243;42.708;23.310;2023-08-06T10:13:36;93859.91;;;27.12;55.71
16451;BME280;12243;42.708;23.310;2023-08-06T10:16:05;93857.97;;;26.97;55.88
16451;BME280;12243;42.708;23.310;2023-08-06T10:18:32;93850.31;;;27.16;55.30
16451;BME280;12243;42.708;23.310;2023-08-06T10:21:00;93850.09;;;27.85;54.79
16451;BME280;12243;42.708;23.310;2023-08-06T10:23:33;93854.94;;;28.14;53.27
16451;BME280;12243;42.708;23.310;2023-08-06T10:26:02;93855.22;;;28.02;53.28
16451;BME280;12243;42.708;23.310;2023-08-06T10:28:34;93853.72;;;27.53;55.30
16451;BME280;12243;42.708;23.310;2023-08-06T10:31:02;93857.41;;;27.37;56.27
16451;BME280;12243;42.708;23.310;2023-08-06T10:33:40;93862.50;;;27.44;56.96
16451;BME280;12243;42.708;23.310;2023-08-06T10:36:08;93864.06;;;28.13;55.80
16451;BME280;12243;42.708;23.310;2023-08-06T10:38:44;93874.03;;;28.68;53.79
16451;BME280;12243;42.708;23.310;2023-08-06T10:41:18;93874.25;;;28.26;53.35
16451;BME280;12243;42.708;23.310;2023-08-06T10:43:47;93888.72;;;28.15;53.44
16451;BME280;12243;42.708;23.310;2023-08-06T10:46:22;93878.66;;;27.74;54.74
16451;BME280;12243;42.708;23.310;2023-08-06T10:48:49;93879.78;;;27.21;56.07
16451;BME280;12243;42.708;23.310;2023-08-06T10:51:16;93879.22;;;27.14;56.25
16451;BME280;12243;42.708;23.310;2023-08-06T10:53:44;93886.06;;;27.04;56.84
16451;BME280;12243;42.708;23.310;2023-08-06T10:56:16;93882.59;;;27.09;56.61
16451;BME280;12243;42.708;23.310;2023-08-06T10:58:44;93884.09;;;27.27;55.59
16451;BME280;12243;42.708;23.310;2023-08-06T11:01:11;93891.72;;;27.55;55.96
16451;BME280;12243;42.708;23.310;2023-08-06T11:03:39;93894.00;;;27.94;53.96
16451;BME280;12243;42.708;23.310;2023-08-06T11:06:07;93896.09;;;27.82;53.55
16451;BME280;12243;42.708;23.310;2023-08-06T11:08:35;93909.31;;;27.41;53.84
16451;BME280;12243;42.708;23.310;2023-08-06T11:11:08;93913.09;;;26.44;58.29
16451;BME280;12243;42.708;23.310;2023-08-06T11:13:38;93919.84;;;25.53;65.40
16451;BME280;12243;42.708;23.310;2023-08-06T11:16:05;93916.34;;;25.31;66.62
16451;BME280;12243;42.708;23.310;2023-08-06T11:18:32;93907.16;;;25.22;68.27
16451;BME280;12243;42.708;23.310;2023-08-06T11:20:59;93908.94;;;25.16;69.10
16451;BME280;12243;42.708;23.310;2023-08-06T11:23:27;93924.59;;;25.29;68.24
16451;BME280;12243;42.708;23.310;2023-08-06T11:25:55;93920.06;;;25.30;68.16
16451;BME280;12243;42.708;23.310;2023-08-06T11:28:22;93918.09;;;25.42;67.69
16451;BME280;12243;42.708;23.310;2023-08-06T11:30:50;93925.47;;;25.57;66.15
16451;BME280;12243;42.708;23.310;2023-08-06T11:33:20;93913.63;;;25.70;65.03
16451;BME280;12243;42.708;23.310;2023-08-06T11:35:48;93906.06;;;26.05;63.59
16451;BME280;12243;42.708;23.310;2023-08-06T11:38:15;93907.47;;;26.40;60.81
16451;BME280;12243;42.708;23.310;2023-08-06T11:40:44;93907.72;;;26.71;59.74
16451;BME280;12243;42.708;23.310;2023-08-06T11:43:12;93904.94;;;27.30;56.73
16451;BME280;12243;42.708;23.310;2023-08-06T11:45:41;93889.72;;;27.88;55.05
16451;BME280;12243;42.708;23.310;2023-08-06T11:48:10;93894.63;;;28.22;52.23
16451;BME280;12243;42.708;23.310;2023-08-06T11:50:38;93886.09;;;28.51;52.16
16451;BME280;12243;42.708;23.310;2023-08-06T11:53:05;93886.63;;;28.73;50.91
16451;BME280;12243;42.708;23.310;2023-08-06T11:55:36;93886.09;;;28.91;50.25
16451;BME280;12243;42.708;23.310;2023-08-06T11:58:03;93887.72;;;29.03;50.87
16451;BME280;12243;42.708;23.310;2023-08-06T12:00:31;93882.00;;;29.40;47.46
16451;BME280;12243;42.708;23.310;2023-08-06T12:02:59;93884.28;;;29.82;47.93
16451;BME280;12243;42.708;23.310;2023-08-06T12:05:30;93887.59;;;30.13;45.62
16451;BME280;12243;42.708;23.310;2023-08-06T12:07:59;93884.19;;;29.98;46.20
16451;BME280;12243;42.708;23.310;2023-08-06T12:10:27;93874.69;;;30.21;44.72
16451;BME280;12243;42.708;23.310;2023-08-06T12:12:55;93876.09;;;30.52;45.07
16451;BME280;12243;42.708;23.310;2023-08-06T12:15:22;93877.22;;;30.80;43.64
16451;BME280;12243;42.708;23.310;2023-08-06T12:17:50;93881.66;;;29.67;44.30
16451;BME280;12243;42.708;23.310;2023-08-06T12:20:17;93876.97;;;28.82;46.15
16451;BME280;12243;42.708;23.310;2023-08-06T12:22:45;93866.50;;;28.24;47.77
16451;BME280;12243;42.708;23.310;2023-08-06T12:25:13;93874.72;;;27.92;50.02
16451;BME280;12243;42.708;23.310;2023-08-06T12:27:41;93872.03;;;27.77;50.27
16451;BME280;12243;42.708;23.310;2023-08-06T12:30:09;93870.19;;;28.03;50.89
16451;BME280;12243;42.708;23.310;2023-08-06T12:32:37;93867.31;;;28.35;48.84
16451;BME280;12243;42.708;23.310;2023-08-06T12:35:05;93858.22;;;28.36;48.54
16451;BME280;12243;42.708;23.310;2023-08-06T12:37:33;93866.81;;;28.38;49.15
16451;BME280;12243;42.708;23.310;2023-08-06T12:40:01;93873.78;;;28.49;49.07
16451;BME280;12243;42.708;23.310;2023-08-06T12:42:28;93864.66;;;28.66;48.77
16451;BME280;12243;42.708;23.310;2023-08-06T12:44:55;93859.84;;;28.78;47.94
16451;BME280;12243;42.708;23.310;2023-08-06T12:47:22;93864.66;;;28.91;47.60
16451;BME280;12243;42.708;23.310;2023-08-06T12:49:49;93865.16;;;28.37;48.36